Terminal Aerodrome Forecast
Issued by NWS Wilmington, OH

Current Version | Previous Version | Graphics & Text | Print | Product List | Glossary On
Versions: 1 2 3 4 5 6 7 8 9 10 11 12 13 14 15 16 17 18 19 20
000
FTUS41 KILN 171123
TAFILN
TAF
KILN 171123Z 1712/1812 13008KT P6SM OVC018
     FM171800 15009KT P6SM BKN250
     FM180300 17011KT P6SM VCSH OVC090 WS020/20040KT
     FM180600 19014G22KT 6SM -SHRA OVC040 WS020/21045KT
     FM180900 20018G28KT 4SM -SHRA BR OVC025 WS020/21045KT=

USA.gov is the U.S. government's official web portal to all federal, state and local government web resources and services.